createdAt,value
2023-05-22T00:00:17.746Z,41.37
2023-05-22T00:02:46.033Z,41.51
2023-05-22T00:05:18.594Z,41.54
2023-05-22T00:07:46.661Z,41.61
2023-05-22T00:10:14.794Z,41.36
2023-05-22T00:12:42.878Z,41.31
2023-05-22T00:15:11.796Z,41.25
2023-05-22T00:17:39.775Z,41.59
2023-05-22T00:20:10.814Z,41.29
2023-05-22T00:22:40.364Z,41.35
2023-05-22T00:25:09.627Z,41.65
2023-05-22T00:27:37.698Z,41.63
2023-05-22T00:30:07.500Z,41.82
2023-05-22T00:32:35.879Z,41.44
2023-05-22T00:35:03.982Z,41.55
2023-05-22T00:37:31.953Z,41.46
2023-05-22T00:40:01.300Z,41.54
2023-05-22T00:42:29.466Z,41.63
2023-05-22T00:44:57.516Z,41.79
2023-05-22T00:47:27.225Z,41.78
2023-05-22T00:49:55.293Z,41.80
2023-05-22T00:52:23.274Z,41.50
2023-05-22T00:54:51.612Z,41.82
2023-05-22T00:57:22.215Z,41.51
2023-05-22T00:59:50.180Z,41.77
2023-05-22T01:02:18.225Z,41.78
2023-05-22T01:04:48.268Z,41.47
2023-05-22T01:07:16.564Z,41.56
2023-05-22T01:09:44.611Z,41.60
2023-05-22T01:12:16.543Z,41.38
2023-05-22T01:14:48.707Z,41.62
2023-05-22T01:17:23.674Z,41.86
2023-05-22T01:20:06.243Z,41.93
2023-05-22T01:23:04.329Z,41.73
2023-05-22T01:26:04.054Z,41.52
2023-05-22T01:28:45.705Z,41.58
2023-05-22T01:31:15.900Z,41.82
2023-05-22T01:33:47.251Z,42.01
2023-05-22T01:36:15.826Z,42.05
2023-05-22T01:38:43.866Z,41.77
2023-05-22T01:41:11.945Z,41.72
2023-05-22T01:43:40.278Z,41.79
2023-05-22T01:46:08.466Z,41.73
2023-05-22T01:48:38.167Z,42.05
2023-05-22T01:51:13.233Z,41.88
2023-05-22T01:53:42.991Z,41.87
2023-05-22T01:56:13.731Z,42.17
2023-05-22T01:58:45.066Z,42.06
2023-05-22T02:01:13.664Z,42.11
2023-05-22T02:03:43.105Z,41.84
2023-05-22T02:06:11.590Z,42.04
2023-05-22T02:08:40.214Z,41.82
2023-05-22T02:11:08.489Z,41.98
2023-05-22T02:13:36.606Z,42.07
2023-05-22T02:16:05.138Z,41.96
2023-05-22T02:18:33.178Z,42.14
2023-05-22T02:21:03.423Z,42.16
2023-05-22T02:23:31.569Z,41.91
2023-05-22T02:25:59.595Z,42.05
2023-05-22T02:28:28.066Z,41.91
2023-05-22T02:30:56.255Z,42.09
2023-05-22T02:33:24.294Z,41.88
2023-05-22T02:35:52.528Z,41.99
2023-05-22T02:38:21.986Z,42.18
2023-05-22T02:40:50.000Z,42.16
2023-05-22T02:43:18.040Z,42.05
2023-05-22T02:45:45.930Z,42.17
2023-05-22T02:48:14.024Z,41.88
2023-05-22T02:50:44.235Z,42.23
2023-05-22T02:53:13.133Z,42.13
2023-05-22T02:55:42.559Z,42.28
2023-05-22T02:58:12.966Z,42.13
2023-05-22T03:00:41.299Z,42.13
2023-05-22T03:03:09.574Z,42.29
2023-05-22T03:05:38.587Z,42.00
2023-05-22T03:08:07.432Z,42.01
2023-05-22T03:10:35.434Z,42.16
2023-05-22T03:13:04.942Z,42.18
2023-05-22T03:15:33.007Z,42.12
2023-05-22T03:18:01.100Z,42.14
2023-05-22T03:20:29.281Z,41.93
2023-05-22T03:22:57.205Z,42.19
2023-05-22T03:25:26.368Z,42.09
2023-05-22T03:27:54.358Z,42.34
2023-05-22T03:30:23.982Z,42.07
2023-05-22T03:32:53.403Z,42.01
2023-05-22T03:35:21.508Z,41.90
2023-05-22T03:37:49.572Z,42.21
2023-05-22T03:40:17.626Z,42.36
2023-05-22T03:42:45.685Z,42.20
2023-05-22T03:45:13.828Z,42.08
2023-05-22T03:47:43.217Z,42.15
2023-05-22T03:50:11.880Z,42.26
2023-05-22T03:52:39.876Z,42.28
2023-05-22T03:55:09.378Z,42.02
2023-05-22T03:57:37.409Z,42.04
2023-05-22T04:00:09.916Z,42.12
2023-05-22T04:02:39.943Z,42.23
2023-05-22T04:05:10.364Z,42.04
2023-05-22T04:07:38.511Z,42.10
2023-05-22T04:10:07.254Z,42.01
2023-05-22T04:12:35.300Z,42.07
2023-05-22T04:15:03.381Z,42.03
2023-05-22T04:17:32.677Z,42.26
2023-05-22T04:20:00.960Z,42.06
2023-05-22T04:22:32.159Z,42.31
2023-05-22T04:25:00.243Z,42.03
2023-05-22T04:27:31.383Z,42.19
2023-05-22T04:30:00.055Z,42.13
2023-05-22T04:32:29.895Z,42.44
2023-05-22T04:35:00.763Z,42.17
2023-05-22T04:37:31.756Z,42.37
2023-05-22T04:40:02.971Z,42.40
2023-05-22T04:42:31.579Z,42.41
2023-05-22T04:44:59.614Z,42.23
2023-05-22T04:47:29.089Z,42.27
2023-05-22T04:49:57.253Z,42.34
2023-05-22T04:52:25.374Z,42.34
2023-05-22T04:54:55.585Z,42.22
2023-05-22T04:57:25.796Z,42.43
2023-05-22T04:59:54.854Z,42.19
2023-05-22T05:02:22.935Z,42.27
2023-05-22T05:04:51.024Z,42.29
2023-05-22T05:07:18.979Z,42.58
2023-05-22T05:09:47.039Z,42.33
2023-05-22T05:12:16.632Z,42.52
2023-05-22T05:14:51.203Z,42.38
2023-05-22T05:17:18.838Z,42.43
2023-05-22T05:19:46.756Z,42.73
2023-05-22T05:22:15.484Z,42.57
2023-05-22T05:24:43.558Z,42.84
2023-05-22T05:27:11.592Z,42.73
2023-05-22T05:29:41.342Z,42.49
2023-05-22T05:32:09.937Z,42.75
2023-05-22T05:34:37.908Z,42.98
2023-05-22T05:37:06.488Z,42.62
2023-05-22T05:39:34.416Z,42.73
2023-05-22T05:42:02.419Z,42.66
2023-05-22T05:44:30.846Z,42.85
2023-05-22T05:47:00.172Z,43.06
2023-05-22T05:49:28.132Z,42.70
2023-05-22T05:51:56.602Z,42.92
2023-05-22T05:54:26.321Z,42.66
2023-05-22T05:56:54.534Z,42.71
2023-05-22T05:59:22.509Z,42.80
2023-05-22T06:01:50.681Z,42.92
2023-05-22T06:04:20.047Z,43.05
2023-05-22T06:06:47.952Z,43.05
2023-05-22T06:09:16.478Z,43.05
2023-05-22T06:11:44.614Z,43.06
2023-05-22T06:14:12.704Z,42.98
2023-05-22T06:16:40.837Z,42.61
2023-05-22T06:19:10.456Z,42.57
2023-05-22T06:21:39.869Z,42.76
2023-05-22T06:24:08.160Z,42.89
2023-05-22T06:26:36.210Z,43.07
2023-05-22T06:29:04.142Z,42.81
2023-05-22T06:31:35.337Z,42.94
2023-05-22T06:34:03.573Z,42.68
2023-05-22T06:36:31.835Z,42.82
2023-05-22T06:39:01.426Z,42.69
2023-05-22T06:41:29.348Z,42.76
2023-05-22T06:43:57.330Z,42.86
2023-05-22T06:46:26.232Z,42.76
2023-05-22T06:48:54.439Z,42.71
2023-05-22T06:51:22.861Z,42.58
2023-05-22T06:53:50.868Z,42.60
2023-05-22T06:56:20.977Z,42.85
2023-05-22T06:58:49.443Z,42.64
2023-05-22T07:01:18.202Z,42.63
2023-05-22T07:03:46.292Z,42.55
2023-05-22T07:06:15.685Z,42.89
2023-05-22T07:08:43.888Z,42.48
2023-05-22T07:11:12.679Z,42.81
2023-05-22T07:13:43.166Z,42.89
2023-05-22T07:16:11.243Z,42.60
2023-05-22T07:18:41.181Z,42.91
2023-05-22T07:21:09.189Z,42.81
2023-05-22T07:23:37.247Z,42.77
2023-05-22T07:26:06.131Z,42.70
2023-05-22T07:28:34.119Z,42.58
2023-05-22T07:31:06.215Z,42.67
2023-05-22T07:33:34.342Z,42.72
2023-05-22T07:36:02.351Z,42.66
2023-05-22T07:38:31.193Z,42.90
2023-05-22T07:40:59.270Z,42.68
2023-05-22T07:43:28.038Z,42.70
2023-05-22T07:45:56.061Z,42.79
2023-05-22T07:48:25.599Z,42.56
2023-05-22T07:50:54.453Z,42.61
2023-05-22T07:53:22.531Z,42.56
2023-05-22T07:55:51.708Z,42.80
2023-05-22T07:58:19.864Z,42.96
2023-05-22T08:00:48.862Z,42.71
2023-05-22T08:03:17.764Z,42.79
2023-05-22T08:05:47.614Z,42.65
2023-05-22T08:08:16.576Z,42.66
2023-05-22T08:11:01.988Z,42.59
2023-05-22T08:13:32.436Z,42.52
2023-05-22T08:16:01.573Z,42.74
2023-05-22T08:18:30.223Z,42.72
2023-05-22T08:21:02.016Z,42.70
2023-05-22T08:23:30.212Z,42.49
2023-05-22T08:25:59.211Z,42.46
2023-05-22T08:28:27.206Z,42.58
2023-05-22T08:30:55.561Z,42.69
2023-05-22T08:33:25.095Z,42.68
2023-05-22T08:35:53.197Z,42.69
2023-05-22T08:38:25.140Z,42.68
2023-05-22T08:40:53.118Z,42.50
2023-05-22T08:43:21.425Z,42.70
2023-05-22T08:45:50.698Z,42.85
2023-05-22T08:48:18.734Z,42.51
2023-05-22T08:50:47.646Z,42.56
2023-05-22T08:53:15.763Z,42.46
2023-05-22T08:55:47.097Z,42.65
2023-05-22T08:58:16.155Z,42.48
2023-05-22T09:00:45.558Z,42.47
2023-05-22T09:03:14.937Z,42.67
2023-05-22T09:05:43.751Z,42.57
2023-05-22T09:08:19.638Z,42.47
2023-05-22T09:10:53.338Z,42.51
2023-05-22T09:13:29.335Z,42.45
2023-05-22T09:16:02.526Z,42.51
2023-05-22T09:18:30.820Z,42.45
2023-05-22T09:20:59.566Z,42.55
2023-05-22T09:23:30.447Z,42.27
2023-05-22T09:26:00.691Z,42.38
2023-05-22T09:28:30.462Z,42.51
2023-05-22T09:30:58.475Z,42.23
2023-05-22T09:33:26.488Z,42.56
2023-05-22T09:35:55.341Z,42.44
2023-05-22T09:38:23.995Z,42.10
2023-05-22T09:40:55.153Z,42.18
2023-05-22T09:43:25.516Z,42.16
2023-05-22T09:45:58.417Z,42.45
2023-05-22T09:48:26.779Z,42.26
2023-05-22T09:50:55.160Z,42.09
2023-05-22T09:53:27.802Z,42.35
2023-05-22T09:55:57.032Z,42.08
2023-05-22T09:58:28.889Z,42.14
2023-05-22T10:00:57.642Z,42.22
2023-05-22T10:03:27.637Z,42.31
2023-05-22T10:05:56.523Z,42.38
2023-05-22T10:08:26.316Z,42.12
2023-05-22T10:10:56.300Z,42.24
2023-05-22T10:13:26.396Z,42.21
2023-05-22T10:15:55.289Z,41.94
2023-05-22T10:18:23.457Z,42.11
2023-05-22T10:20:51.553Z,42.10
2023-05-22T10:23:20.390Z,42.23
2023-05-22T10:25:48.411Z,41.97
2023-05-22T10:28:19.773Z,42.02
2023-05-22T10:30:50.884Z,42.17
2023-05-22T10:33:21.488Z,41.84
2023-05-22T10:35:51.406Z,41.78
2023-05-22T10:38:52.956Z,41.91
2023-05-22T10:41:21.370Z,41.96
2023-05-22T10:43:50.043Z,41.93
2023-05-22T10:46:20.191Z,42.04
2023-05-22T10:48:50.568Z,41.62
2023-05-22T10:51:21.591Z,41.81
2023-05-22T10:53:54.581Z,41.90
2023-05-22T10:56:25.270Z,41.78
2023-05-22T10:59:02.718Z,41.51
2023-05-22T11:01:36.100Z,41.94
2023-05-22T11:04:11.698Z,41.69
2023-05-22T11:06:42.087Z,41.80
2023-05-22T11:09:27.921Z,41.44
2023-05-22T11:12:23.387Z,41.48
2023-05-22T11:14:55.732Z,41.76
2023-05-22T11:17:26.778Z,41.48
2023-05-22T11:20:02.064Z,41.70
2023-05-22T11:22:35.189Z,41.50
2023-05-22T11:25:05.297Z,41.54
2023-05-22T11:27:33.370Z,41.60
2023-05-22T11:30:03.707Z,41.69
2023-05-22T11:32:33.220Z,41.44
2023-05-22T11:35:02.512Z,41.58
2023-05-22T11:37:30.489Z,41.49
2023-05-22T11:40:00.764Z,41.42
2023-05-22T11:42:29.250Z,41.56
2023-05-22T11:44:57.331Z,41.50
2023-05-22T11:47:29.329Z,41.54
2023-05-22T11:49:59.896Z,41.56
2023-05-22T11:52:37.537Z,41.60
2023-05-22T11:55:06.256Z,41.36
2023-05-22T11:57:34.853Z,41.36
2023-05-22T12:00:09.653Z,41.45
2023-05-22T12:02:37.746Z,41.23
2023-05-22T12:05:11.091Z,41.66
2023-05-22T12:07:39.771Z,41.65
2023-05-22T12:10:10.319Z,41.45
2023-05-22T12:12:38.560Z,41.32
2023-05-22T12:15:08.464Z,41.25
2023-05-22T12:17:37.110Z,41.45
2023-05-22T12:20:08.347Z,41.38
2023-05-22T12:22:42.137Z,41.43
2023-05-22T12:25:16.410Z,41.34
2023-05-22T12:27:44.832Z,41.57
2023-05-22T12:30:14.851Z,41.50
2023-05-22T12:32:44.199Z,41.22
2023-05-22T12:35:17.678Z,41.28
2023-05-22T12:37:50.310Z,41.14
2023-05-22T12:40:18.520Z,41.31
2023-05-22T12:42:47.341Z,41.23
2023-05-22T12:45:15.378Z,41.38
2023-05-22T12:47:43.518Z,41.19
2023-05-22T12:50:12.713Z,40.97
2023-05-22T12:52:42.166Z,41.09
2023-05-22T12:55:12.604Z,41.14
2023-05-22T12:57:40.866Z,40.96
2023-05-22T13:00:10.069Z,40.98
2023-05-22T13:02:40.479Z,41.17
2023-05-22T13:05:09.078Z,40.95
2023-05-22T13:07:38.480Z,40.98
2023-05-22T13:10:09.983Z,41.13
2023-05-22T13:12:38.856Z,40.87
2023-05-22T13:15:07.872Z,41.04
2023-05-22T13:17:35.981Z,41.28
2023-05-22T13:20:05.501Z,41.51
2023-05-22T13:22:33.506Z,41.39
2023-05-22T13:25:02.391Z,41.37
2023-05-22T13:27:33.725Z,41.41
2023-05-22T13:30:03.019Z,41.36
2023-05-22T13:32:31.094Z,41.38
2023-05-22T13:34:59.140Z,41.72
2023-05-22T13:37:27.952Z,41.32
2023-05-22T13:39:55.947Z,41.81
2023-05-22T13:42:25.527Z,41.56
2023-05-22T13:44:54.871Z,41.53
2023-05-22T13:47:23.998Z,41.59
2023-05-22T13:49:52.904Z,41.77
2023-05-22T13:52:21.039Z,41.77
2023-05-22T13:54:50.580Z,41.78
2023-05-22T13:57:18.511Z,41.93
2023-05-22T13:59:46.589Z,41.79
2023-05-22T14:02:17.181Z,41.87
2023-05-22T14:04:46.474Z,41.77
2023-05-22T14:07:17.554Z,41.82
2023-05-22T14:09:47.016Z,41.76
2023-05-22T14:12:15.917Z,41.93
2023-05-22T14:14:44.868Z,41.66
2023-05-22T14:17:12.882Z,41.77
2023-05-22T14:19:43.164Z,41.52
2023-05-22T14:22:11.184Z,41.69
2023-05-22T14:24:39.208Z,41.42
2023-05-22T14:27:09.509Z,41.74
2023-05-22T14:29:37.467Z,41.71
2023-05-22T14:32:07.664Z,41.52
2023-05-22T14:34:35.745Z,41.54
2023-05-22T14:37:05.386Z,41.53
2023-05-22T14:39:34.369Z,41.46
2023-05-22T14:42:02.369Z,41.48
2023-05-22T14:44:31.879Z,41.22
2023-05-22T14:46:59.856Z,41.47
2023-05-22T14:49:27.800Z,41.42
2023-05-22T14:51:56.702Z,41.45
2023-05-22T14:54:26.067Z,41.19
2023-05-22T14:56:56.023Z,41.16
2023-05-22T14:59:23.968Z,41.16
2023-05-22T15:01:58.731Z,41.19
2023-05-22T15:04:26.947Z,41.14
2023-05-22T15:06:55.023Z,41.13
2023-05-22T15:09:23.936Z,41.18
2023-05-22T15:11:54.161Z,41.06
2023-05-22T15:14:23.196Z,41.00
2023-05-22T15:16:51.362Z,41.01
2023-05-22T15:19:19.401Z,40.93
2023-05-22T15:21:48.584Z,40.90
2023-05-22T15:24:16.828Z,40.98
2023-05-22T15:26:46.516Z,40.96
2023-05-22T15:29:15.876Z,40.93
2023-05-22T15:31:44.797Z,41.10
2023-05-22T15:34:12.938Z,40.88
2023-05-22T15:36:41.258Z,41.14
2023-05-22T15:39:10.308Z,40.88
2023-05-22T15:41:38.418Z,41.04
2023-05-22T15:44:07.342Z,41.01
2023-05-22T15:46:36.746Z,40.90
2023-05-22T15:49:10.745Z,40.98
2023-05-22T15:51:38.950Z,41.17
2023-05-22T15:54:09.440Z,41.01
2023-05-22T15:56:38.377Z,41.13
2023-05-22T15:59:06.463Z,41.01
2023-05-22T16:01:35.423Z,41.24
2023-05-22T16:04:06.089Z,41.21
2023-05-22T16:06:34.096Z,41.03
2023-05-22T16:09:04.796Z,41.05
2023-05-22T16:11:33.787Z,41.11
2023-05-22T16:14:01.808Z,41.12
2023-05-22T16:16:33.998Z,41.18
2023-05-22T16:19:02.197Z,41.26
2023-05-22T16:21:32.661Z,41.15
2023-05-22T16:24:00.664Z,41.05
2023-05-22T16:26:28.769Z,41.16
2023-05-22T16:28:58.708Z,41.38
2023-05-22T16:31:26.707Z,41.06
2023-05-22T16:33:55.594Z,41.09
2023-05-22T16:36:24.618Z,41.04
2023-05-22T16:38:57.755Z,41.08
2023-05-22T16:41:26.948Z,41.21
2023-05-22T16:43:55.050Z,41.14
2023-05-22T16:46:23.998Z,40.98
2023-05-22T16:48:51.973Z,41.32
2023-05-22T16:51:21.206Z,41.09
2023-05-22T16:53:50.485Z,41.37
2023-05-22T16:56:21.738Z,41.38
2023-05-22T16:58:49.719Z,41.27
2023-05-22T17:01:17.855Z,41.25
2023-05-22T17:03:48.938Z,41.63
2023-05-22T17:06:20.186Z,41.25
2023-05-22T17:08:49.861Z,41.32
2023-05-22T17:11:20.968Z,41.51
2023-05-22T17:13:52.470Z,41.54
2023-05-22T17:16:21.098Z,41.42
2023-05-22T17:18:49.133Z,41.41
2023-05-22T17:21:18.785Z,41.37
2023-05-22T17:23:46.789Z,41.31
2023-05-22T17:26:17.745Z,41.50
2023-05-22T17:28:47.125Z,41.69
2023-05-22T17:31:16.751Z,41.24
2023-05-22T17:33:45.333Z,41.33
2023-05-22T17:36:13.519Z,41.38
2023-05-22T17:38:42.677Z,41.64
2023-05-22T17:41:10.707Z,41.58
2023-05-22T17:43:40.395Z,41.39
2023-05-22T17:46:09.816Z,41.41
2023-05-22T17:48:37.839Z,41.51
2023-05-22T17:51:06.584Z,41.47
2023-05-22T17:53:35.684Z,41.40
2023-05-22T17:56:05.701Z,41.67
2023-05-22T17:58:33.683Z,41.67
2023-05-22T18:01:01.836Z,41.58
2023-05-22T18:03:32.782Z,41.44
2023-05-22T18:06:00.838Z,41.61
2023-05-22T18:08:30.975Z,41.90
2023-05-22T18:10:59.980Z,41.53
2023-05-22T18:13:28.051Z,41.50
2023-05-22T18:15:56.951Z,41.54
2023-05-22T18:18:24.946Z,41.82
2023-05-22T18:20:55.240Z,41.58
2023-05-22T18:23:23.250Z,41.48
2023-05-22T18:25:51.237Z,41.66
2023-05-22T18:28:24.306Z,41.59
2023-05-22T18:30:52.510Z,41.56
2023-05-22T18:33:21.917Z,41.71
2023-05-22T18:35:50.051Z,41.63
2023-05-22T18:38:19.441Z,41.56
2023-05-22T18:40:48.389Z,41.73
2023-05-22T18:43:16.524Z,41.52
2023-05-22T18:45:46.176Z,41.48
2023-05-22T18:48:14.270Z,41.56
2023-05-22T18:50:42.725Z,41.63
2023-05-22T18:53:17.938Z,41.58
2023-05-22T18:55:48.575Z,41.51
2023-05-22T18:58:18.058Z,41.70
2023-05-22T19:00:46.221Z,41.51
2023-05-22T19:03:14.331Z,41.59
2023-05-22T19:05:44.006Z,41.52
2023-05-22T19:08:11.971Z,41.44
2023-05-22T19:10:42.405Z,41.69
2023-05-22T19:13:12.082Z,41.85
2023-05-22T19:15:49.992Z,41.80
2023-05-22T19:18:24.118Z,41.75
2023-05-22T19:20:53.036Z,41.52
2023-05-22T19:23:21.026Z,41.65
2023-05-22T19:25:49.394Z,41.28
2023-05-22T19:28:19.910Z,41.44
2023-05-22T19:30:47.962Z,41.34
2023-05-22T19:33:19.080Z,41.42
2023-05-22T19:35:47.057Z,41.27
2023-05-22T19:38:15.188Z,41.58
2023-05-22T19:40:47.896Z,41.31
2023-05-22T19:43:16.102Z,41.27
2023-05-22T19:45:46.944Z,41.45
2023-05-22T19:48:15.145Z,41.26
2023-05-22T19:50:50.915Z,41.30
2023-05-22T19:53:18.912Z,41.52
2023-05-22T19:55:47.599Z,41.41
2023-05-22T19:58:20.050Z,41.29
2023-05-22T20:00:49.535Z,41.33
2023-05-22T20:03:17.589Z,41.23
2023-05-22T20:05:47.890Z,41.45
2023-05-22T20:08:16.589Z,41.53
2023-05-22T20:10:46.317Z,41.50
2023-05-22T20:13:18.874Z,41.39
2023-05-22T20:15:50.229Z,41.36
2023-05-22T20:18:20.867Z,41.52
2023-05-22T20:20:48.971Z,41.22
2023-05-22T20:23:18.159Z,41.37
2023-05-22T20:25:46.207Z,41.32
2023-05-22T20:28:17.022Z,41.58
2023-05-22T20:30:45.018Z,41.43
2023-05-22T20:33:14.467Z,41.46
2023-05-22T20:35:46.978Z,41.58
2023-05-22T20:38:15.327Z,41.29
2023-05-22T20:40:49.081Z,41.39
2023-05-22T20:43:18.584Z,41.35
2023-05-22T20:45:46.800Z,41.70
2023-05-22T20:48:16.346Z,41.43
2023-05-22T20:50:47.306Z,41.50
2023-05-22T20:53:16.465Z,41.37
2023-05-22T20:55:44.481Z,41.17
2023-05-22T20:58:12.453Z,41.46
2023-05-22T21:00:43.195Z,41.29
2023-05-22T21:03:11.849Z,41.20
2023-05-22T21:05:41.109Z,41.40
2023-05-22T21:08:10.864Z,41.50
2023-05-22T21:10:39.904Z,41.48
2023-05-22T21:13:10.097Z,41.54
2023-05-22T21:15:38.310Z,41.58
2023-05-22T21:18:07.835Z,41.40
2023-05-22T21:20:35.812Z,41.48
2023-05-22T21:23:04.830Z,41.59
2023-05-22T21:25:34.395Z,41.46
2023-05-22T21:28:03.361Z,41.69
2023-05-22T21:30:31.654Z,41.55
2023-05-22T21:33:01.858Z,41.68
2023-05-22T21:35:29.946Z,41.58
2023-05-22T21:37:58.028Z,41.41
2023-05-22T21:40:27.496Z,41.83
2023-05-22T21:42:56.905Z,41.71
2023-05-22T21:45:25.830Z,41.54
2023-05-22T21:47:53.900Z,41.71
2023-05-22T21:50:22.765Z,41.84
2023-05-22T21:52:50.741Z,42.03
2023-05-22T21:55:18.769Z,42.03
2023-05-22T21:57:47.609Z,41.86
2023-05-22T22:00:17.837Z,42.13
2023-05-22T22:02:47.043Z,41.96
2023-05-22T22:05:15.010Z,41.91
2023-05-22T22:07:43.010Z,42.16
2023-05-22T22:10:12.426Z,41.99
2023-05-22T22:12:42.164Z,42.13
2023-05-22T22:15:13.270Z,42.17
2023-05-22T22:17:42.750Z,42.05
2023-05-22T22:20:12.316Z,42.29
2023-05-22T22:22:47.142Z,42.07
2023-05-22T22:25:15.179Z,42.47
2023-05-22T22:27:43.111Z,42.56
2023-05-22T22:30:11.839Z,42.47
2023-05-22T22:32:39.905Z,42.11
2023-05-22T22:35:10.778Z,42.50
2023-05-22T22:37:38.791Z,42.33
2023-05-22T22:40:07.957Z,42.23
2023-05-22T22:42:35.959Z,42.26
2023-05-22T22:45:03.987Z,42.30
2023-05-22T22:47:32.312Z,42.41
2023-05-22T22:50:00.411Z,42.42
2023-05-22T22:52:29.807Z,42.38
2023-05-22T22:54:57.898Z,42.52
2023-05-22T22:57:25.945Z,42.28
2023-05-22T22:59:54.021Z,42.53
2023-05-22T23:02:22.074Z,42.58
2023-05-22T23:04:50.215Z,42.40
2023-05-22T23:07:18.371Z,42.45
2023-05-22T23:09:47.745Z,42.66
2023-05-22T23:12:15.868Z,42.54
2023-05-22T23:14:45.436Z,42.71
2023-05-22T23:17:13.708Z,42.77
2023-05-22T23:19:41.789Z,42.92
2023-05-22T23:22:09.882Z,42.83
2023-05-22T23:24:37.845Z,42.57
2023-05-22T23:27:07.462Z,42.52
2023-05-22T23:29:35.504Z,42.72
2023-05-22T23:32:03.607Z,42.76
2023-05-22T23:34:31.630Z,42.86
2023-05-22T23:36:59.590Z,42.92
2023-05-22T23:39:27.896Z,42.65
2023-05-22T23:41:55.861Z,42.53
2023-05-22T23:44:25.667Z,42.53
2023-05-22T23:46:53.626Z,42.65
2023-05-22T23:49:21.729Z,42.75
2023-05-22T23:51:49.677Z,42.85
2023-05-22T23:54:18.019Z,42.54
2023-05-22T23:56:46.090Z,42.67
2023-05-22T23:59:14.143Z,42.71
